Time;durP1;ratioP1;P1;durP2;ratioP2;P2;SDS_P1;SDS_P2;PMS_P1;PMS_P2;Temp;Humidity;BMP_temperature;BMP_pressure;BME280_temperature;BME280_humidity;BME280_pressure;Samples;Min_cycle;Max_cycle;Signal;HPM_P1;HPM_P2
2022/12/16 00:00:00;;;;;;;48.63;20.45;;;-0.50;99.90;;;;;;5068104;28;20596;-83
2022/12/16 00:02:27;;;;;;;48.45;23.20;;;-0.40;99.90;;;;;;5066478;28;20231;-83
2022/12/16 00:04:56;;;;;;;55.13;23.75;;;-0.50;99.90;;;;;;5069481;28;20268;-83
2022/12/16 00:07:23;;;;;;;41.92;20.02;;;-0.50;99.90;;;;;;5070091;28;20257;-83
2022/12/16 00:09:50;;;;;;;52.80;20.38;;;-0.50;99.90;;;;;;5073630;28;20616;-83
2022/12/16 00:12:17;;;;;;;37.28;19.60;;;-0.50;99.90;;;;;;5068356;28;20469;-83
2022/12/16 00:14:45;;;;;;;51.72;21.52;;;-0.50;99.90;;;;;;5066715;28;20260;-83
2022/12/16 00:17:12;;;;;;;42.40;17.95;;;-0.50;99.90;;;;;;5064535;28;20254;-83
2022/12/16 00:19:39;;;;;;;39.92;20.15;;;-0.50;99.90;;;;;;5069116;28;20236;-83
2022/12/16 00:22:06;;;;;;;31.98;16.92;;;-0.50;99.90;;;;;;5065383;28;20232;-83
2022/12/16 00:24:33;;;;;;;49.90;19.77;;;-0.50;99.90;;;;;;5068204;28;20232;-83
2022/12/16 00:27:00;;;;;;;31.55;17.23;;;-0.50;99.90;;;;;;5070550;28;20710;-83
2022/12/16 00:29:26;;;;;;;34.25;18.75;;;-0.50;99.90;;;;;;5069675;28;20327;-83
2022/12/16 00:31:55;;;;;;;39.07;21.00;;;-0.50;99.90;;;;;;5067764;28;20381;-83
2022/12/16 00:34:22;;;;;;;36.13;19.73;;;-0.50;99.90;;;;;;5066011;28;20520;-83
2022/12/16 00:36:49;;;;;;;37.38;19.88;;;-0.50;99.90;;;;;;5072312;28;20239;-83
2022/12/16 00:39:16;;;;;;;38.00;22.33;;;-0.50;99.90;;;;;;5070046;28;20230;-83
2022/12/16 00:41:43;;;;;;;25.60;13.70;;;-0.50;99.90;;;;;;5067918;28;20289;-83
2022/12/16 00:44:10;;;;;;;41.97;19.65;;;-0.50;99.90;;;;;;5064018;28;20309;-83
2022/12/16 00:46:37;;;;;;;36.35;22.23;;;-0.50;99.90;;;;;;5069895;28;20262;-83
2022/12/16 00:49:05;;;;;;;38.55;18.58;;;-0.50;99.90;;;;;;5066401;28;20717;-83
2022/12/16 00:51:32;;;;;;;35.88;17.42;;;-0.50;99.90;;;;;;5065511;28;20657;-83
2022/12/16 00:53:59;;;;;;;38.95;18.60;;;-0.50;99.90;;;;;;5065688;28;20255;-84
2022/12/16 00:56:26;;;;;;;38.05;22.50;;;-0.50;99.90;;;;;;5067336;28;20661;-84
2022/12/16 00:58:53;;;;;;;39.03;23.58;;;-0.50;99.90;;;;;;5068459;28;20239;-83
2022/12/16 01:01:20;;;;;;;41.03;19.63;;;-0.50;99.90;;;;;;5065539;28;20240;-83
2022/12/16 01:03:47;;;;;;;39.65;20.33;;;-0.50;99.90;;;;;;5065927;28;20276;-83
2022/12/16 01:06:17;;;;;;;31.33;18.60;;;-0.40;99.90;;;;;;5070963;28;20235;-83
2022/12/16 01:08:47;;;;;;;30.10;19.30;;;-0.50;99.90;;;;;;5069102;28;20296;-83
2022/12/16 01:11:15;;;;;;;40.17;18.80;;;-0.50;99.90;;;;;;5064839;28;20490;-83
2022/12/16 01:13:43;;;;;;;34.03;19.52;;;-0.40;99.90;;;;;;5072949;28;20308;-83
2022/12/16 01:16:10;;;;;;;32.33;18.30;;;-0.40;99.90;;;;;;5071813;28;20302;-83
2022/12/16 01:18:37;;;;;;;36.17;22.47;;;-0.50;99.90;;;;;;5068152;28;20486;-83
2022/12/16 01:21:06;;;;;;;34.03;17.65;;;-0.40;99.90;;;;;;5067452;28;20941;-83
2022/12/16 01:23:35;;;;;;;42.33;20.02;;;-0.40;99.90;;;;;;5066976;28;20254;-83
2022/12/16 01:26:02;;;;;;;37.70;18.73;;;-0.40;99.90;;;;;;5074935;28;20235;-83
2022/12/16 01:28:30;;;;;;;38.15;18.92;;;-0.40;99.90;;;;;;5069928;28;20625;-83
2022/12/16 01:31:00;;;;;;;43.67;21.02;;;-0.40;99.90;;;;;;5064091;28;20208;-83
2022/12/16 01:33:27;;;;;;;41.00;18.38;;;-0.40;99.90;;;;;;5065266;28;20679;-84
2022/12/16 01:36:03;;;;;;;45.28;21.67;;;-0.40;99.90;;;;;;5069324;28;21487;-83
2022/12/16 01:38:30;;;;;;;30.05;17.63;;;-0.40;99.90;;;;;;5065042;28;20206;-83
2022/12/16 01:40:59;;;;;;;38.63;18.98;;;-0.40;99.90;;;;;;5065060;28;20611;-84
2022/12/16 01:43:28;;;;;;;38.63;19.25;;;-0.40;99.90;;;;;;5063932;28;20292;-83
2022/12/16 01:46:00;;;;;;;30.40;18.20;;;-0.40;99.90;;;;;;5063155;28;20241;-84
2022/12/16 01:48:44;;;;;;;32.42;18.00;;;-0.40;99.90;;;;;;5069464;28;20283;-83
2022/12/16 01:51:15;;;;;;;29.48;16.83;;;-0.40;99.90;;;;;;5065073;28;20227;-83
2022/12/16 01:53:43;;;;;;;32.78;17.15;;;-0.40;99.90;;;;;;5068309;28;20247;-83
2022/12/16 01:56:17;;;;;;;32.60;16.65;;;-0.30;99.90;;;;;;5067485;28;20208;-83
2022/12/16 01:58:45;;;;;;;34.50;16.92;;;-0.40;99.90;;;;;;5068822;28;20235;-84
2022/12/16 02:01:13;;;;;;;30.90;15.00;;;-0.40;99.90;;;;;;5067787;28;20258;-83
2022/12/16 02:03:42;;;;;;;35.63;17.60;;;-0.30;99.90;;;;;;5074486;28;20467;-83
2022/12/16 02:06:09;;;;;;;35.42;19.05;;;-0.30;99.90;;;;;;5064814;28;20792;-83
2022/12/16 02:08:36;;;;;;;31.77;16.17;;;-0.30;99.90;;;;;;5066411;28;20626;-83
2022/12/16 02:11:28;;;;;;;32.72;18.23;;;-0.30;99.90;;;;;;5064304;28;20933;-83
2022/12/16 02:14:31;;;;;;;34.90;18.03;;;-0.30;99.90;;;;;;5063967;28;20688;-83
2022/12/16 02:17:03;;;;;;;32.80;17.67;;;-0.30;99.90;;;;;;5068889;28;20539;-83
2022/12/16 02:19:52;;;;;;;28.98;16.58;;;-0.40;99.90;;;;;;5066229;28;20298;-84
2022/12/16 02:22:29;;;;;;;30.07;16.10;;;-0.40;99.90;;;;;;5073487;28;20242;-83
2022/12/16 02:25:33;;;;;;;36.47;17.17;;;-0.30;99.90;;;;;;5063974;28;20482;-83
2022/12/16 02:28:08;;;;;;;25.90;13.43;;;-0.30;99.90;;;;;;5074249;28;20321;-84
2022/12/16 02:31:00;;;;;;;33.92;15.52;;;-0.30;99.90;;;;;;5067306;28;20736;-83
2022/12/16 02:33:44;;;;;;;26.90;15.57;;;-0.30;99.90;;;;;;5071308;28;20701;-83
2022/12/16 02:36:18;;;;;;;28.90;13.70;;;-0.20;99.90;;;;;;5063380;28;20262;-83
2022/12/16 02:38:55;;;;;;;31.40;17.67;;;-0.20;99.90;;;;;;5067250;28;20491;-83
2022/12/16 02:41:27;;;;;;;26.90;15.10;;;-0.20;99.90;;;;;;5066219;28;20212;-84
2022/12/16 02:43:57;;;;;;;25.65;15.13;;;-0.30;99.90;;;;;;5064514;28;20226;-83
2022/12/16 02:46:28;;;;;;;20.33;13.75;;;-0.30;99.90;;;;;;5064192;28;20585;-83
2022/12/16 02:48:56;;;;;;;27.95;15.63;;;-0.30;99.90;;;;;;5066178;28;20266;-84
2022/12/16 02:51:25;;;;;;;32.03;15.93;;;-0.20;99.90;;;;;;5068970;28;20242;-83
2022/12/16 02:53:54;;;;;;;33.40;17.20;;;-0.20;99.90;;;;;;5067173;28;20232;-83
2022/12/16 02:56:37;;;;;;;27.80;14.45;;;-0.20;99.90;;;;;;5069094;28;20203;-84
2022/12/16 02:59:20;;;;;;;25.83;15.00;;;-0.10;99.90;;;;;;5070462;28;20236;-84
2022/12/16 03:01:57;;;;;;;30.10;15.93;;;-0.20;99.90;;;;;;5073182;28;20705;-83
2022/12/16 03:04:31;;;;;;;28.38;15.30;;;-0.20;99.90;;;;;;5067593;28;20261;-83
2022/12/16 03:07:01;;;;;;;34.67;17.38;;;-0.10;99.90;;;;;;5066857;28;20237;-84
2022/12/16 03:09:32;;;;;;;26.27;14.60;;;-0.10;99.90;;;;;;5072092;28;20297;-84
2022/12/16 03:12:02;;;;;;;24.37;14.40;;;-0.10;99.90;;;;;;5070288;28;20502;-83
2022/12/16 03:14:33;;;;;;;28.60;15.07;;;-0.10;99.90;;;;;;5067266;28;20515;-84
2022/12/16 03:17:02;;;;;;;34.13;16.83;;;-0.10;99.90;;;;;;5067700;28;20989;-83
2022/12/16 03:19:30;;;;;;;29.00;14.70;;;-0.10;99.90;;;;;;5070722;28;20467;-84
2022/12/16 03:22:02;;;;;;;35.80;17.25;;;-0.10;99.90;;;;;;5072602;28;20640;-84
2022/12/16 03:24:29;;;;;;;35.10;17.50;;;-0.10;99.90;;;;;;5068618;28;20625;-83
2022/12/16 03:27:06;;;;;;;26.47;15.47;;;0.00;99.90;;;;;;5064485;28;20997;-83
2022/12/16 03:29:39;;;;;;;26.93;14.10;;;0.00;99.90;;;;;;5067762;28;20515;-84
2022/12/16 03:32:11;;;;;;;27.03;14.00;;;0.10;99.90;;;;;;5069041;28;20543;-83
2022/12/16 03:34:42;;;;;;;24.70;14.60;;;0.00;99.90;;;;;;5066772;28;20783;-84
2022/12/16 03:37:11;;;;;;;31.30;15.20;;;0.00;99.90;;;;;;5070259;28;20547;-84
2022/12/16 03:39:42;;;;;;;33.80;14.40;;;0.10;99.90;;;;;;5069505;28;20556;-83
2022/12/16 03:42:09;;;;;;;23.00;13.53;;;0.10;99.90;;;;;;5069937;28;20971;-84
2022/12/16 03:44:37;;;;;;;20.37;12.67;;;0.10;99.90;;;;;;5066626;28;20560;-84
2022/12/16 03:47:04;;;;;;;31.60;15.40;;;0.10;99.90;;;;;;5066514;28;20599;-84
2022/12/16 03:49:33;;;;;;;26.33;14.57;;;0.10;99.90;;;;;;5069532;28;20498;-84
2022/12/16 03:52:00;;;;;;;25.77;15.07;;;0.20;99.90;;;;;;5067147;28;20527;-86
2022/12/16 03:54:27;;;;;;;24.97;13.77;;;0.20;99.90;;;;;;5067150;28;20522;-85
2022/12/16 03:56:54;;;;;;;32.50;14.70;;;0.30;99.90;;;;;;5066868;28;20502;-83
2022/12/16 03:59:21;;;;;;;27.10;15.70;;;0.30;99.90;;;;;;5069874;28;20926;-82
2022/12/16 04:01:48;;;;;;;28.53;15.20;;;0.30;99.90;;;;;;5065626;28;20490;-83
2022/12/16 04:04:15;;;;;;;31.03;13.80;;;0.40;99.90;;;;;;5064489;28;20467;-83
2022/12/16 04:06:44;;;;;;;27.87;14.33;;;0.30;99.90;;;;;;5068398;28;20498;-83
2022/12/16 04:09:11;;;;;;;23.55;15.40;;;0.30;99.90;;;;;;5068226;28;20478;-83
2022/12/16 04:25:31;;;;;;;23.08;13.32;;;0.40;99.90;;;;;;5064268;28;20510;-83
2022/12/16 04:27:59;;;;;;;22.17;13.80;;;0.40;99.90;;;;;;5072492;28;20228;-83
2022/12/16 04:30:28;;;;;;;25.13;12.63;;;0.40;99.90;;;;;;5067406;28;20629;-83
